Aviation Digital Data Service (ADDS)

Output produced by METARs form (0916 UTC 20 January 2018)
found at http://aviationweather.gov/adds/metars/
 
KJAN 200520Z 2006/2106 16005KT P6SM OVC050 
     FM201600 17012KT P6SM FEW050 BKN100